Nearby METAR Reports

 

KIND - Indianapolis, Indiana, USA
Distance from station: SW 6mi, 9km
Updated: Feb 04 2023 9:54pm
Overcast
Overcast
 Wind from SSW
Wind: SSW 22 mph , 35 km/h, Gust: 31 mph , 50 km/h
Temperature: 43°F , 6°C
Wind Chill: 34°F , 1°C
Dew Point: 19°F , -7°C
Humidity: 39%
Barometer: 30.11 inHg , 1019.6 hPa
Clouds: Overcast
Visibility: 10 miles , 16 km
Cloud details: Overcast 23000 ft
2023/02/05 02:54 KIND 050254Z 21019G27KT 10SM OVC230 06/M07 A3011 RMK AO2 PK WND 20027/0248 SLP205 T00561072 58010
KEYE - Indianapolis, Indiana, USA
Distance from station: NW 5mi, 8km
Updated: Feb 04 2023 9:53pm
Clear
Clear
 Wind from SSW
Wind: SSW 15 mph , 24 km/h, Gust: 28 mph , 44 km/h
Temperature: 43°F , 6°C
Wind Chill: 36°F , 2°C
Dew Point: 19°F , -7°C
Humidity: 39%
Barometer: 30.10 inHg , 1019.3 hPa
Clouds: Clear
Visibility: 10 miles , 16 km
2023/02/05 02:53 KEYE 050253Z AUTO 20013G24KT 10SM CLR 06/M07 A3010 RMK AO2 SLP201 T00561067 58010 $
 
KTYQ - Indianapolis Exc, Indiana, USA
Distance from station: N 17mi, 28km
Updated: Feb 04 2023 10:35pm
Clear
Clear
 Wind from SSW
Wind: SSW 21 mph , 33 km/h, Gust: 29 mph , 46 km/h
Temperature: 39°F , 4°C
Wind Chill: 29°F , -2°C
Dew Point: 23°F , -5°C
Humidity: 52%
Barometer: 30.09 inHg , 1019 hPa
Clouds: Clear
Visibility: 10 miles , 16 km
2023/02/05 03:35 KTYQ 050335Z AUTO 21018G25KT 10SM CLR 04/M05 A3009 RMK AO2 T00421055
KGEZ - Shelbyville, Indiana, USA
Distance from station: ESE 27mi, 43km
Updated: Feb 04 2023 9:53pm
Clear
Clear
 Wind from S
Wind: S 10 mph , 17 km/h
Temperature: 41°F , 5°C
Wind Chill: 35°F , 2°C
Dew Point: 23°F , -5°C
Humidity: 49%
Barometer: 30.14 inHg , 1020.7 hPa
Clouds: Clear
Visibility: 10 miles , 16 km
2023/02/05 02:53 KGEZ 050253Z AUTO 18009KT 10SM CLR 05/M05 A3014 RMK AO2 SLP214 T00501050 58008
 
KAID - Anderson Municip, Indiana, USA
Distance from station: NE 40mi, 64km
Updated: Feb 04 2023 10:55pm
Clear
Clear
 Wind from SSW
Wind: SSW 17 mph , 28 km/h, Gust: 26 mph , 43 km/h
Temperature: 39°F , 4°C
Wind Chill: 30°F , -1°C
Dew Point: 19°F , -7°C
Humidity: 45%
Barometer: 30.10 inHg , 1019.3 hPa
Clouds: Clear
Visibility: 10 miles , 16 km
2023/02/05 03:55 KAID 050355Z AUTO 21015G23KT 10SM CLR 04/M07 A3010 RMK AO2 T00411075
KBAK - Columbus/Balkala, Indiana, USA
Distance from station: SSE 40mi, 64km
Updated: Feb 04 2023 8:47pm
NOT Current
Few Clouds
Few Clouds
 Wind from SW
Wind: SW 14 mph , 22 km/h
Temperature: 39°F , 4°C
Wind Chill: 31°F , -1°C
Dew Point: 18°F , -8°C
Humidity: 42%
Barometer: 30.19 inHg , 1022.4 hPa
Clouds: Few Clouds
Visibility: 10 miles , 16 km
Cloud details: Few Clouds 20000 ft
2023/02/05 01:47 KBAK 050147Z 22012KT 10SM FEW200 04/M08 A3019
 
KBMG - Bloomington, Indiana, USA
Distance from station: SSW 48mi, 78km
Updated: Feb 04 2023 9:53pm
Clear
Clear
 Wind from SSW
Wind: SSW 16 mph , 26 km/h, Gust: 28 mph , 44 km/h
Temperature: 43°F , 6°C
Wind Chill: 35°F , 2°C
Dew Point: 19°F , -7°C
Humidity: 39%
Barometer: 30.16 inHg , 1021.3 hPa
Clouds: Clear
Visibility: 10 miles , 16 km
2023/02/05 02:53 KBMG 050253Z AUTO 20014G24KT 10SM CLR 06/M07 A3016 RMK AO2 SLP217 T00561067 58010
KOKK - Kokomo, Indiana, USA
Distance from station: N 53mi, 85km
Updated: Feb 04 2023 9:56pm
Clear
Clear
 Wind from SSW
Wind: SSW 23 mph , 37 km/h
Temperature: 39°F , 4°C
Wind Chill: 28°F , -2°C
Dew Point: 25°F , -4°C
Humidity: 56%
Barometer: 30.05 inHg , 1017.6 hPa
Clouds: Clear
Visibility: 10 miles , 16 km
2023/02/05 02:56 KOKK 050256Z AUTO 20020KT 10SM CLR 04/M04 A3005 RMK AO2 PK WND 21030/0222 SLP186 6//// T00391044 56011 PNO $